Time;durP1;ratioP1;P1;durP2;ratioP2;P2;SDS_P1;SDS_P2;PMS_P1;PMS_P2;Temp;Humidity;BMP_temperature;BMP_pressure;BME280_temperature;BME280_humidity;BME280_pressure;Samples;Min_cycle;Max_cycle;Signal;HPM_P1;HPM_P2
2022/12/31 00:00:37;;;;;;;3.17;1.43;;;;;;;6.21;100.00;100098.50;4935887;28;20212;-73
2022/12/31 00:03:03;;;;;;;2.37;1.60;;;;;;;6.25;100.00;100104.47;4924601;29;20461;-72
2022/12/31 00:05:30;;;;;;;1.73;1.33;;;;;;;6.23;100.00;100107.06;4937813;28;20318;-74
2022/12/31 00:07:56;;;;;;;2.07;1.40;;;;;;;6.24;100.00;100106.22;4924394;29;20295;-72
2022/12/31 00:10:23;;;;;;;2.03;1.37;;;;;;;6.26;100.00;100108.75;4922413;29;20207;-73
2022/12/31 00:12:49;;;;;;;2.37;1.50;;;;;;;6.21;100.00;100103.66;4923100;29;20211;-73
2022/12/31 00:15:16;;;;;;;2.13;1.70;;;;;;;6.19;100.00;100094.19;4920846;28;20211;-72
2022/12/31 00:17:43;;;;;;;2.47;1.67;;;;;;;6.13;100.00;100102.94;4926967;29;20226;-74
2022/12/31 00:20:10;;;;;;;5.60;2.07;;;;;;;6.07;100.00;100116.81;4926327;29;20218;-72
2022/12/31 00:22:37;;;;;;;2.20;1.60;;;;;;;6.00;100.00;100114.38;4925841;29;20235;-73
2022/12/31 00:25:07;;;;;;;1.93;1.57;;;;;;;5.96;100.00;100115.28;4926838;29;20211;-73
2022/12/31 00:27:33;;;;;;;2.30;1.13;;;;;;;5.95;100.00;100114.41;4924043;29;20203;-73
2022/12/31 00:30:00;;;;;;;2.90;1.63;;;;;;;5.91;100.00;100128.28;4925579;29;20775;-73
2022/12/31 00:32:26;;;;;;;1.40;1.13;;;;;;;5.88;100.00;100129.16;4928213;29;20759;-73
2022/12/31 00:34:53;;;;;;;1.90;1.30;;;;;;;5.91;100.00;100142.91;4927163;29;20960;-73
2022/12/31 00:37:20;;;;;;;2.07;1.30;;;;;;;5.84;100.00;100136.97;4926755;29;20210;-73
2022/12/31 00:39:46;;;;;;;1.80;1.40;;;;;;;5.83;100.00;100136.13;4925154;29;20565;-72
2022/12/31 00:42:12;;;;;;;1.57;1.47;;;;;;;5.84;100.00;100144.72;4924458;29;20223;-73
2022/12/31 00:44:39;;;;;;;2.33;1.40;;;;;;;5.82;100.00;100159.44;4926513;29;20218;-73
2022/12/31 00:47:05;;;;;;;1.77;1.40;;;;;;;5.84;100.00;100162.84;4924920;29;20212;-73
2022/12/31 00:49:31;;;;;;;1.90;1.40;;;;;;;5.82;100.00;100162.00;4925604;29;20203;-72
2022/12/31 00:51:59;;;;;;;3.37;1.50;;;;;;;5.78;100.00;100166.38;4926448;29;20589;-73
2022/12/31 00:54:26;;;;;;;2.57;1.67;;;;;;;5.78;100.00;100161.19;4926925;29;20592;-73
2022/12/31 00:56:52;;;;;;;3.37;1.37;;;;;;;5.78;100.00;100168.97;4924893;28;20211;-73
2022/12/31 00:59:18;;;;;;;1.97;1.30;;;;;;;5.84;100.00;100174.06;4926250;29;20447;-73
2022/12/31 01:01:45;;;;;;;2.43;1.67;;;;;;;5.90;100.00;100169.69;4923281;29;20223;-72
2022/12/31 01:04:15;;;;;;;1.53;1.37;;;;;;;5.90;100.00;100167.09;4924108;29;20231;-72
2022/12/31 01:06:43;;;;;;;3.70;1.37;;;;;;;5.92;100.00;100175.69;4925532;29;20199;-73
2022/12/31 01:09:12;;;;;;;1.43;1.30;;;;;;;5.94;100.00;100182.53;4927354;29;20764;-72
2022/12/31 01:11:38;;;;;;;1.43;1.17;;;;;;;5.91;100.00;100179.16;4925642;29;20692;-74
2022/12/31 01:14:08;;;;;;;4.27;1.33;;;;;;;5.85;100.00;100172.31;4924729;29;20227;-73
2022/12/31 01:16:37;;;;;;;1.57;1.23;;;;;;;5.87;100.00;100181.78;4925826;29;20227;-74
2022/12/31 01:19:06;;;;;;;2.13;1.23;;;;;;;5.90;100.00;100180.03;4925041;29;20203;-74
2022/12/31 01:21:33;;;;;;;1.30;1.10;;;;;;;5.92;100.00;100181.72;4926281;29;20223;-73
2022/12/31 01:24:00;;;;;;;1.27;1.03;;;;;;;5.94;100.00;100182.53;4924748;29;20219;-74
2022/12/31 01:26:29;;;;;;;1.00;0.90;;;;;;;5.94;100.00;100184.28;4925319;29;20212;-73
2022/12/31 01:28:56;;;;;;;2.10;1.07;;;;;;;6.03;100.00;100190.22;4924244;29;20218;-73
2022/12/31 01:31:23;;;;;;;1.20;1.10;;;;;;;6.10;100.00;100198.75;4926212;29;20392;-72
2022/12/31 01:33:52;;;;;;;2.20;1.30;;;;;;;6.20;100.00;100199.47;4923219;29;20251;-73
2022/12/31 01:36:21;;;;;;;2.33;0.80;;;;;;;6.24;100.00;100198.53;4922655;29;20199;-73
2022/12/31 01:38:48;;;;;;;1.47;1.37;;;;;;;6.27;100.00;100208.00;4924346;29;20623;-74
2022/12/31 01:41:17;;;;;;;3.83;1.20;;;;;;;6.34;100.00;100217.41;4923611;29;20657;-73
2022/12/31 01:43:48;;;;;;;1.20;1.03;;;;;;;6.38;100.00;100214.72;4925499;29;20231;-73
2022/12/31 01:46:23;;;;;;;1.30;1.13;;;;;;;6.40;100.00;100205.22;4920211;29;20289;-73
2022/12/31 01:48:52;;;;;;;0.90;0.90;;;;;;;6.48;100.00;100202.50;4925092;29;20200;-74
2022/12/31 01:51:19;;;;;;;2.33;1.17;;;;;;;6.57;100.00;100209.25;4923302;29;20207;-72
2022/12/31 01:53:47;;;;;;;2.17;1.10;;;;;;;6.54;100.00;100210.16;4924364;29;20267;-73
2022/12/31 01:56:13;;;;;;;0.90;0.90;;;;;;;6.52;100.00;100217.09;4924255;29;20203;-73
2022/12/31 01:58:43;;;;;;;1.13;1.03;;;;;;;6.55;100.00;100218.78;4924798;29;20222;-73
2022/12/31 02:01:13;;;;;;;0.90;0.80;;;;;;;6.61;100.00;100219.56;4923820;28;20555;-73
2022/12/31 02:03:40;;;;;;;0.77;0.70;;;;;;;6.74;100.00;100219.34;4924976;29;20223;-72
2022/12/31 02:06:13;;;;;;;1.03;0.53;;;;;;;6.81;100.00;100210.59;4925283;29;20209;-72
2022/12/31 02:08:39;;;;;;;0.80;0.80;;;;;;;6.87;100.00;100218.25;4941758;28;20550;-72
2022/12/31 02:11:21;;;;;;;0.57;0.53;;;;;;;6.90;100.00;100213.00;4922808;29;20224;-72
2022/12/31 02:13:48;;;;;;;0.57;0.57;;;;;;;7.06;100.00;100213.59;4939595;28;20231;-74
2022/12/31 02:16:24;;;;;;;1.80;0.57;;;;;;;7.15;100.00;100208.22;4925630;29;20207;-73
2022/12/31 02:18:55;;;;;;;0.43;0.43;;;;;;;7.28;100.00;100210.59;4924631;29;20691;-74
2022/12/31 02:21:44;;;;;;;0.50;0.50;;;;;;;7.28;100.00;100211.47;4923881;29;20217;-74
2022/12/31 02:24:31;;;;;;;0.60;0.60;;;;;;;7.30;100.00;100203.63;4937165;28;20259;-72
2022/12/31 02:27:03;;;;;;;0.70;0.70;;;;;;;7.43;100.00;100193.91;4923694;29;20196;-73
2022/12/31 02:30:05;;;;;;;0.30;0.30;;;;;;;7.50;100.00;100203.25;4924506;29;20584;-72
2022/12/31 02:32:40;;;;;;;0.60;0.57;;;;;;;7.62;100.00;100203.00;4922968;29;20225;-74
2022/12/31 02:35:11;;;;;;;0.60;0.60;;;;;;;7.66;100.00;100207.25;4925667;29;20219;-73
2022/12/31 02:37:41;;;;;;;0.40;0.40;;;;;;;7.67;100.00;100208.09;4938034;28;20219;-72
2022/12/31 02:40:11;;;;;;;0.60;0.60;;;;;;;7.81;100.00;100205.19;4923621;29;20216;-73
2022/12/31 02:42:38;;;;;;;0.53;0.53;;;;;;;7.87;100.00;100212.88;4923542;29;20230;-73
2022/12/31 02:45:07;;;;;;;0.60;0.60;;;;;;;7.97;100.00;100206.59;4923467;29;20207;-74
2022/12/31 02:47:47;;;;;;;0.50;0.50;;;;;;;8.01;100.00;100200.44;4918460;29;20213;-74
2022/12/31 02:50:25;;;;;;;0.50;0.50;;;;;;;7.96;100.00;100208.31;4921829;29;20823;-73
2022/12/31 02:53:01;;;;;;;0.50;0.50;;;;;;;8.00;100.00;100208.25;4919554;29;20721;-73
2022/12/31 02:55:35;;;;;;;0.53;0.53;;;;;;;7.97;100.00;100209.19;4924109;29;20231;-74
2022/12/31 02:58:10;;;;;;;0.40;0.40;;;;;;;7.93;100.00;100215.31;4919730;29;20196;-73
2022/12/31 03:03:30;;;;;;;0.60;0.50;;;;;;;8.02;100.00;100222.06;4923795;29;20238;-73
2022/12/31 03:05:57;;;;;;;0.60;0.60;;;;;;;8.11;100.00;100225.31;4922847;29;20680;-73
2022/12/31 03:08:26;;;;;;;0.63;0.63;;;;;;;8.12;100.00;100224.41;4923808;29;20209;-73
2022/12/31 03:10:55;;;;;;;0.77;0.70;;;;;;;8.08;100.00;100221.94;4923380;29;20210;-73
2022/12/31 03:13:21;;;;;;;1.03;0.87;;;;;;;8.04;100.00;100221.16;4926876;29;20226;-73
2022/12/31 03:15:49;;;;;;;0.70;0.70;;;;;;;8.02;100.00;100225.53;4927688;29;20663;-73
2022/12/31 03:18:17;;;;;;;0.70;0.70;;;;;;;8.03;100.00;100221.19;4928606;29;20218;-73
2022/12/31 03:23:34;;;;;;;0.80;0.73;;;;;;;7.96;100.00;100217.84;4926250;29;20226;-72
2022/12/31 03:26:01;;;;;;;1.57;1.13;;;;;;;7.92;100.00;100216.22;4926005;29;20203;-74
2022/12/31 03:28:29;;;;;;;1.30;1.10;;;;;;;7.87;100.00;100215.47;4928382;29;20265;-73
2022/12/31 03:30:59;;;;;;;2.10;0.97;;;;;;;7.84;100.00;100224.16;4926196;29;20377;-73
2022/12/31 03:33:29;;;;;;;0.93;0.90;;;;;;;7.83;100.00;100232.84;4926808;29;20246;-73
2022/12/31 03:35:56;;;;;;;1.40;1.10;;;;;;;7.81;100.00;100228.56;4926962;29;20222;-73
2022/12/31 03:38:23;;;;;;;1.70;1.33;;;;;;;7.83;100.00;100227.66;4927165;29;20257;-73
2022/12/31 03:40:51;;;;;;;1.20;1.10;;;;;;;7.81;100.00;100219.06;4925940;29;20206;-74
2022/12/31 03:43:18;;;;;;;2.40;1.50;;;;;;;7.77;100.00;100223.47;4928018;29;20235;-74
2022/12/31 03:45:47;;;;;;;1.50;1.10;;;;;;;7.76;100.00;100220.88;4928678;29;20677;-73
2022/12/31 03:48:15;;;;;;;1.57;1.37;;;;;;;7.75;100.00;100222.59;4928556;29;20612;-73
2022/12/31 03:50:41;;;;;;;2.13;1.27;;;;;;;7.75;100.00;100217.41;4926584;29;20214;-73
2022/12/31 03:53:07;;;;;;;1.90;1.23;;;;;;;7.78;100.00;100219.97;4927605;29;20230;-73
2022/12/31 03:55:34;;;;;;;1.23;1.13;;;;;;;7.79;100.00;100226.00;4927317;29;20216;-73
2022/12/31 03:58:00;;;;;;;1.37;1.23;;;;;;;7.83;100.00;100217.28;4928621;29;20218;-73
2022/12/31 04:00:27;;;;;;;1.83;1.10;;;;;;;7.86;100.00;100214.63;4926481;29;20742;-72
2022/12/31 04:02:53;;;;;;;1.20;1.10;;;;;;;7.86;100.00;100201.66;4925969;29;20232;-74
2022/12/31 04:05:22;;;;;;;2.87;1.40;;;;;;;7.92;100.00;100198.91;4927323;29;20203;-73
2022/12/31 04:07:50;;;;;;;1.70;1.43;;;;;;;7.93;100.00;100202.34;4925142;29;20214;-73
2022/12/31 04:10:19;;;;;;;1.80;1.67;;;;;;;7.95;100.00;100196.25;4926922;29;20214;-73
2022/12/31 04:12:46;;;;;;;1.90;1.30;;;;;;;7.95;100.00;100205.78;4926145;29;20223;-71
2022/12/31 04:15:16;;;;;;;1.93;1.57;;;;;;;8.00;100.00;100198.72;4927390;29;20198;-74
2022/12/31 04:17:42;;;;;;;2.33;1.33;;;;;;;8.02;100.00;100191.78;4928018;29;20200;-74
2022/12/31 04:20:10;;;;;;;1.50;1.30;;;;;;;7.99;100.00;100189.25;4927591;29;20729;-73
2022/12/31 04:22:37;;;;;;;1.33;1.23;;;;;;;8.04;100.00;100186.53;4927237;29;20532;-74
2022/12/31 04:25:05;;;;;;;2.13;1.20;;;;;;;8.06;100.00;100177.81;4928180;29;20650;-74
2022/12/31 04:27:31;;;;;;;1.70;1.30;;;;;;;8.07;100.00;100196.84;4927888;29;20207;-74
2022/12/31 04:29:58;;;;;;;1.10;1.00;;;;;;;8.04;100.00;100179.59;4928400;29;20207;-73
2022/12/31 04:32:24;;;;;;;1.33;1.23;;;;;;;8.06;100.00;100183.00;4925560;29;20251;-74
2022/12/31 04:34:50;;;;;;;1.20;1.10;;;;;;;8.05;100.00;100181.28;4925396;29;20219;-74
2022/12/31 04:37:17;;;;;;;1.23;1.13;;;;;;;8.17;100.00;100172.38;4927097;29;20210;-72
2022/12/31 04:39:44;;;;;;;2.40;1.67;;;;;;;8.20;100.00;100168.88;4926960;29;20214;-73
2022/12/31 04:42:11;;;;;;;5.07;2.30;;;;;;;8.23;100.00;100172.25;4925715;29;20799;-73
2022/12/31 04:44:37;;;;;;;2.87;1.90;;;;;;;8.24;100.00;100170.50;4927681;29;20260;-74
2022/12/31 04:47:04;;;;;;;2.80;1.80;;;;;;;8.25;100.00;100172.19;4925995;29;20214;-73
2022/12/31 04:49:30;;;;;;;2.27;1.40;;;;;;;8.34;100.00;100166.78;4926617;29;20351;-74
2022/12/31 04:51:56;;;;;;;3.43;1.80;;;;;;;8.38;100.00;100160.63;4924302;29;20208;-73
2022/12/31 04:54:23;;;;;;;1.37;1.27;;;;;;;8.40;100.00;100163.19;4927155;29;20206;-73
2022/12/31 04:56:50;;;;;;;1.60;1.20;;;;;;;8.49;100.00;100170.78;4925235;29;20637;-73
2022/12/31 04:59:17;;;;;;;1.20;1.10;;;;;;;8.52;100.00;100173.31;4924565;29;20208;-73
2022/12/31 05:01:43;;;;;;;2.20;1.30;;;;;;;8.61;100.00;100178.28;4923258;29;20667;-73
2022/12/31 05:04:09;;;;;;;1.30;1.20;;;;;;;8.64;100.00;100172.16;4923892;29;20627;-72
2022/12/31 05:06:36;;;;;;;1.10;1.00;;;;;;;8.59;100.00;100179.22;4926819;29;20217;-74
2022/12/31 05:09:02;;;;;;;1.40;0.83;;;;;;;8.55;100.00;100170.66;4926208;29;20215;-74
2022/12/31 05:11:28;;;;;;;1.10;1.00;;;;;;;8.53;100.00;100168.06;4923837;29;20203;-73
2022/12/31 05:13:56;;;;;;;0.93;0.80;;;;;;;8.56;100.00;100179.28;4926677;29;20215;-73
2022/12/31 05:16:22;;;;;;;1.33;1.10;;;;;;;8.64;100.00;100166.97;4925652;29;20214;-72
2022/12/31 05:18:49;;;;;;;1.33;1.00;;;;;;;8.65;100.00;100163.44;4926535;29;20688;-74
2022/12/31 05:21:20;;;;;;;1.20;1.10;;;;;;;8.68;100.00;100164.22;4926491;29;20221;-74
2022/12/31 05:23:46;;;;;;;2.30;1.07;;;;;;;8.71;100.00;100165.91;4925315;29;20243;-72
2022/12/31 05:26:13;;;;;;;0.93;0.90;;;;;;;8.78;100.00;100174.41;4925658;29;20199;-74
2022/12/31 05:28:39;;;;;;;1.60;1.10;;;;;;;8.78;100.00;100172.66;4941584;28;20218;-74
2022/12/31 05:31:07;;;;;;;1.07;0.97;;;;;;;8.84;100.00;100171.63;4924381;29;20600;-74
2022/12/31 05:33:34;;;;;;;1.07;0.97;;;;;;;8.91;100.00;100170.56;4924902;29;20223;-74
2022/12/31 05:36:00;;;;;;;2.10;1.00;;;;;;;9.04;100.00;100178.88;5041115;23;20260;-71
2022/12/31 05:38:27;;;;;;;1.00;0.90;;;;;;;9.04;100.00;100171.97;5053210;28;20590;-71
2022/12/31 05:40:59;;;;;;;1.10;1.00;;;;;;;9.08;100.00;100173.56;5055067;28;20274;-72
2022/12/31 05:43:25;;;;;;;1.53;0.80;;;;;;;9.12;100.00;100176.94;5056459;28;20221;-72
2022/12/31 05:45:52;;;;;;;1.03;0.97;;;;;;;9.12;100.00;100174.34;5047415;28;20215;-71
2022/12/31 05:48:20;;;;;;;1.00;0.80;;;;;;;9.15;100.00;100176.03;5037062;28;20228;-72
2022/12/31 05:50:46;;;;;;;2.20;1.00;;;;;;;9.14;100.00;100166.50;5040725;28;20195;-71
2022/12/31 05:53:12;;;;;;;1.20;0.80;;;;;;;9.13;100.00;100159.59;5047788;28;20201;-71
2022/12/31 05:55:39;;;;;;;2.10;0.73;;;;;;;9.12;100.00;100158.75;5042815;28;20308;-71
2022/12/31 05:58:05;;;;;;;0.80;0.80;;;;;;;9.16;100.00;100155.16;5040072;28;20208;-71
2022/12/31 06:00:31;;;;;;;1.00;0.90;;;;;;;9.19;100.00;100156.84;5043729;28;20206;-71
2022/12/31 06:02:58;;;;;;;1.33;0.80;;;;;;;9.20;100.00;100151.59;5040690;28;20228;-71
2022/12/31 06:05:26;;;;;;;3.17;0.80;;;;;;;9.21;100.00;100155.03;5038693;28;20338;-71
2022/12/31 06:07:52;;;;;;;1.07;0.70;;;;;;;9.29;100.00;100153.94;5039981;28;20196;-71
2022/12/31 06:10:18;;;;;;;0.90;0.80;;;;;;;9.30;100.00;100157.38;5039119;28;20626;-71
2022/12/31 06:12:45;;;;;;;0.87;0.77;;;;;;;9.33;100.00;100165.09;5045401;28;20209;-71
2022/12/31 06:15:11;;;;;;;0.80;0.80;;;;;;;9.35;100.00;100167.66;5041725;28;20224;-71
2022/12/31 06:17:37;;;;;;;1.47;0.90;;;;;;;9.37;100.00;100171.91;5042119;28;20582;-71
2022/12/31 06:20:05;;;;;;;0.80;0.80;;;;;;;9.38;100.00;100170.19;5036898;28;20294;-71
2022/12/31 06:22:33;;;;;;;0.70;0.70;;;;;;;9.42;100.00;100177.00;5040262;28;20520;-71
2022/12/31 06:24:59;;;;;;;0.80;0.80;;;;;;;9.40;100.00;100168.38;5039344;28;20225;-71
2022/12/31 06:27:25;;;;;;;1.00;0.90;;;;;;;9.42;100.00;100171.78;5038826;28;20207;-71
2022/12/31 06:29:51;;;;;;;0.90;0.90;;;;;;;9.48;100.00;100158.63;5038155;28;20205;-71
2022/12/31 06:32:18;;;;;;;0.70;0.70;;;;;;;9.47;100.00;100162.09;5039040;28;20212;-71
2022/12/31 06:34:44;;;;;;;0.97;0.80;;;;;;;9.43;100.00;100161.34;5037343;28;20670;-71
2022/12/31 06:37:11;;;;;;;0.87;0.80;;;;;;;9.43;100.00;100153.53;5032058;28;20209;-71
2022/12/31 06:39:38;;;;;;;1.10;1.00;;;;;;;9.38;100.00;100165.81;5034725;28;20231;-70
2022/12/31 06:42:05;;;;;;;1.00;0.90;;;;;;;9.34;100.00;100165.94;5036920;28;20217;-71
2022/12/31 06:44:31;;;;;;;1.33;0.90;;;;;;;9.27;100.00;100160.09;5043696;28;20223;-71
2022/12/31 06:46:58;;;;;;;0.80;0.80;;;;;;;9.21;100.00;100157.63;5043140;28;20199;-71
2022/12/31 06:49:24;;;;;;;1.30;0.77;;;;;;;9.23;100.00;100161.03;5047568;28;20699;-71
2022/12/31 06:51:52;;;;;;;1.93;0.83;;;;;;;9.23;100.00;100159.31;5040482;28;20207;-71
2022/12/31 06:54:18;;;;;;;1.50;1.40;;;;;;;9.26;100.00;100150.56;5042675;28;20425;-71
2022/12/31 06:56:47;;;;;;;0.93;0.80;;;;;;;9.33;100.00;100154.69;5038724;28;20203;-71
2022/12/31 06:59:24;;;;;;;1.03;1.03;;;;;;;9.40;100.00;100169.22;5036012;28;20243;-71
2022/12/31 07:02:05;;;;;;;1.10;1.00;;;;;;;9.48;100.00;100169.03;5036290;28;20215;-71
2022/12/31 07:04:50;;;;;;;0.90;0.90;;;;;;;9.37;100.00;100165.88;5042810;28;20835;-71
2022/12/31 07:07:24;;;;;;;0.90;0.90;;;;;;;9.42;100.00;100166.59;5037497;28;20199;-71
2022/12/31 07:09:57;;;;;;;0.80;0.80;;;;;;;9.43;100.00;100161.34;5042479;28;20199;-71
2022/12/31 07:12:36;;;;;;;0.70;0.70;;;;;;;9.41;100.00;100173.53;5041061;28;20205;-71
2022/12/31 07:15:09;;;;;;;0.90;0.70;;;;;;;9.42;100.00;100177.84;5042559;28;20239;-71
2022/12/31 07:17:42;;;;;;;0.87;0.87;;;;;;;9.48;100.00;100190.69;5037257;28;20199;-71
2022/12/31 07:20:11;;;;;;;1.17;0.83;;;;;;;9.56;100.00;100185.25;5048133;28;20210;-71
2022/12/31 07:22:38;;;;;;;0.70;0.70;;;;;;;9.63;100.00;100186.78;5040611;28;20230;-71
2022/12/31 07:25:07;;;;;;;1.87;1.00;;;;;;;9.69;100.00;100180.53;5036281;28;20678;-71
2022/12/31 07:27:52;;;;;;;0.90;0.70;;;;;;;9.80;100.00;100175.88;5040436;28;20200;-71
2022/12/31 07:30:21;;;;;;;0.73;0.73;;;;;;;9.86;100.00;100187.84;5041261;28;20220;-71
2022/12/31 07:33:09;;;;;;;0.80;0.80;;;;;;;9.92;100.00;100179.88;5040737;28;20201;-71
2022/12/31 07:35:47;;;;;;;0.70;0.70;;;;;;;9.98;100.00;100171.84;5041302;28;20613;-71
2022/12/31 07:38:24;;;;;;;0.80;0.80;;;;;;;10.02;100.00;100183.88;5038323;28;20211;-71
2022/12/31 07:41:00;;;;;;;0.80;0.80;;;;;;;10.12;100.00;100173.19;5038376;28;20207;-71
2022/12/31 07:43:35;;;;;;;0.83;0.77;;;;;;;10.21;100.00;100173.72;5038664;28;20213;-71
2022/12/31 07:46:11;;;;;;;0.57;0.57;;;;;;;10.24;100.00;100172.81;5032182;28;20628;-71
2022/12/31 07:48:38;;;;;;;0.60;0.60;;;;;;;10.22;100.00;100165.03;5038046;28;20234;-71
2022/12/31 07:51:06;;;;;;;2.10;0.70;;;;;;;10.33;100.00;100172.53;5035549;28;20576;-71
2022/12/31 07:53:32;;;;;;;0.63;0.60;;;;;;;10.36;100.00;100168.97;5039442;28;20198;-71
2022/12/31 07:56:00;;;;;;;0.53;0.53;;;;;;;10.40;100.00;100175.78;5036510;28;20226;-71
2022/12/31 07:58:47;;;;;;;0.50;0.50;;;;;;;10.50;100.00;100164.16;5039353;28;20252;-71
2022/12/31 08:01:19;;;;;;;1.83;0.70;;;;;;;10.52;100.00;100183.22;5037732;28;20713;-71
2022/12/31 08:03:55;;;;;;;0.70;0.70;;;;;;;10.54;100.00;100184.00;5037738;28;20226;-71
2022/12/31 08:06:33;;;;;;;0.73;0.73;;;;;;;10.54;100.00;100201.41;5038778;28;20229;-71
2022/12/31 08:09:07;;;;;;;0.60;0.60;;;;;;;10.58;100.00;100185.59;5042874;28;20206;-71
2022/12/31 08:11:41;;;;;;;1.50;1.40;;;;;;;10.57;100.00;100181.31;5042759;28;20207;-71
2022/12/31 08:14:11;;;;;;;0.97;0.87;;;;;;;10.58;100.00;100192.56;5039487;28;20865;-70
2022/12/31 08:16:38;;;;;;;1.23;0.93;;;;;;;10.55;100.00;100196.16;5046501;28;20576;-71
2022/12/31 08:19:05;;;;;;;0.80;0.80;;;;;;;10.59;100.00;100194.28;5042084;28;20226;-71
2022/12/31 08:21:43;;;;;;;2.00;1.80;;;;;;;10.63;100.00;100198.50;5040520;28;20201;-71
2022/12/31 08:24:19;;;;;;;3.17;2.50;;;;;;;10.66;100.00;100208.81;5038638;28;20789;-71
2022/12/31 08:26:59;;;;;;;5.30;3.23;;;;;;;10.72;100.00;100206.00;5046344;28;20670;-71
2022/12/31 08:29:35;;;;;;;0.83;0.83;;;;;;;10.71;100.00;100199.09;5046935;28;20690;-71
2022/12/31 08:32:09;;;;;;;6.87;4.80;;;;;;;10.77;100.00;100195.44;5038746;28;20492;-70
2022/12/31 08:34:46;;;;;;;10.87;5.67;;;;;;;10.86;100.00;100215.13;5037557;28;20232;-71
2022/12/31 08:37:19;;;;;;;8.57;4.10;;;;;;;10.94;100.00;100210.50;5043472;28;20201;-71
2022/12/31 08:40:10;;;;;;;6.83;3.23;;;;;;;11.02;100.00;100211.09;5042747;28;20919;-71
2022/12/31 08:42:44;;;;;;;5.67;3.43;;;;;;;11.09;100.00;100206.50;5040352;28;20209;-71
2022/12/31 08:45:16;;;;;;;7.57;3.73;;;;;;;11.20;100.00;100206.97;5037754;28;20222;-71
2022/12/31 08:47:51;;;;;;;5.90;3.33;;;;;;;11.34;100.00;100206.50;5041471;28;20205;-71
2022/12/31 08:50:18;;;;;;;13.20;6.13;;;;;;;11.53;100.00;100197.06;5041859;28;20205;-71
2022/12/31 08:52:47;;;;;;;10.90;4.13;;;;;;;11.69;100.00;100197.34;5037207;28;20211;-71
2022/12/31 08:55:16;;;;;;;6.33;2.77;;;;;;;11.85;100.00;100196.78;5039886;28;20222;-71
2022/12/31 08:57:51;;;;;;;3.93;1.47;;;;;;;11.91;100.00;100196.59;5038037;28;20214;-71
2022/12/31 09:00:21;;;;;;;3.30;1.63;;;;;;;11.99;100.00;100188.44;5039940;28;20198;-71
2022/12/31 09:02:59;;;;;;;3.43;1.63;;;;;;;12.13;100.00;100180.91;5034327;28;20198;-71
2022/12/31 09:05:32;;;;;;;1.00;0.90;;;;;;;12.27;100.00;100194.28;5035151;28;20564;-71
2022/12/31 09:08:15;;;;;;;1.07;0.57;;;;;;;12.45;100.00;100205.78;5037693;28;20206;-71
2022/12/31 09:10:49;;;;;;;0.50;0.50;;;;;;;12.72;100.00;100205.56;5031215;28;20211;-71
2022/12/31 09:13:25;;;;;;;0.43;0.43;;;;;;;12.87;100.00;100207.53;4968604;28;20577;-71
2022/12/31 09:16:02;;;;;;;1.13;0.40;;;;;;;12.98;100.00;100204.47;4972590;28;20275;-71
2022/12/31 09:18:30;;;;;;;0.50;0.50;;;;;;;13.01;100.00;100203.47;4971547;28;20220;-71
2022/12/31 09:20:57;;;;;;;0.50;0.50;;;;;;;13.04;100.00;100212.03;4973480;28;20209;-71
2022/12/31 09:23:24;;;;;;;0.40;0.40;;;;;;;13.04;100.00;100212.03;4971095;28;20387;-71
2022/12/31 09:25:59;;;;;;;0.50;0.50;;;;;;;13.14;100.00;100211.63;4972428;28;20218;-71
2022/12/31 09:28:38;;;;;;;0.60;0.50;;;;;;;13.22;100.00;100215.63;4974762;28;20201;-71
2022/12/31 09:31:13;;;;;;;0.40;0.40;;;;;;;13.30;100.00;100215.31;4970096;28;20220;-71
2022/12/31 09:33:46;;;;;;;2.40;0.50;;;;;;;13.40;100.00;100218.38;4972986;28;20632;-71
2022/12/31 09:36:19;;;;;;;2.60;1.57;;;;;;;13.48;100.00;100226.75;4976266;28;20239;-71
2022/12/31 09:38:52;;;;;;;0.47;0.47;;;;;;;13.62;100.00;100229.59;4974565;28;20650;-71
2022/12/31 09:41:39;;;;;;;3.07;0.50;;;;;;;13.76;100.00;100230.75;4973451;28;20519;-71
2022/12/31 09:44:53;;;;;;;0.30;0.30;;;;;;;13.86;100.00;100232.03;4969895;28;20638;-71
2022/12/31 09:47:57;;;;;;;0.50;0.50;;;;;;;13.96;100.00;100221.97;4940795;28;20291;-71
2022/12/31 09:50:47;;;;;;;0.60;0.60;;;;;;;14.04;100.00;100232.94;4974114;28;20207;-71
2022/12/31 09:53:29;;;;;;;1.13;0.53;;;;;;;14.20;100.00;100233.91;4965849;28;20218;-71
2022/12/31 09:56:02;;;;;;;0.53;0.50;;;;;;;14.24;100.00;100232.00;4970232;28;20308;-71
2022/12/31 09:58:41;;;;;;;0.50;0.40;;;;;;;14.22;100.00;100222.53;4975173;28;20662;-71
2022/12/31 10:01:22;;;;;;;0.40;0.40;;;;;;;14.29;100.00;100230.00;4976730;28;20205;-71
2022/12/31 10:04:06;;;;;;;1.00;0.90;;;;;;;14.38;100.00;100245.31;4972454;28;20330;-71
2022/12/31 10:06:40;;;;;;;0.67;0.67;;;;;;;14.45;100.00;100226.66;4974514;28;20201;-71
2022/12/31 10:09:21;;;;;;;0.70;0.70;;;;;;;14.44;100.00;100223.19;4974068;28;20201;-71
2022/12/31 10:12:14;;;;;;;0.53;0.53;;;;;;;14.58;100.00;100233.91;4977411;28;20209;-71
2022/12/31 10:14:55;;;;;;;1.13;1.00;;;;;;;14.71;100.00;100230.66;4975317;28;20249;-71
2022/12/31 10:17:34;;;;;;;0.50;0.50;;;;;;;14.75;100.00;100219.06;4974310;28;20667;-71
2022/12/31 10:20:19;;;;;;;0.60;0.60;;;;;;;14.82;100.00;100227.50;4970976;28;20207;-71
2022/12/31 10:23:26;;;;;;;2.40;0.83;;;;;;;14.79;100.00;100233.75;4974002;28;20706;-72
2022/12/31 10:26:14;;;;;;;2.23;0.70;;;;;;;14.79;100.00;100228.50;4965340;28;20244;-71
2022/12/31 10:28:48;;;;;;;1.37;0.60;;;;;;;14.81;100.00;100238.91;4978442;28;20682;-71
2022/12/31 10:31:36;;;;;;;0.60;0.60;;;;;;;14.76;100.00;100229.50;4974980;28;20539;-71
2022/12/31 10:34:13;;;;;;;0.77;0.40;;;;;;;14.78;100.00;100232.06;4973196;28;20216;-71
2022/12/31 10:36:52;;;;;;;0.70;0.70;;;;;;;14.89;100.00;100234.97;4968015;28;20210;-71
2022/12/31 10:39:27;;;;;;;0.90;0.50;;;;;;;14.93;100.00;100231.28;4975533;28;20456;-71
2022/12/31 10:42:29;;;;;;;3.17;0.50;;;;;;;14.98;100.00;100233.66;4972530;28;20574;-71
2022/12/31 10:45:24;;;;;;;1.07;0.80;;;;;;;15.00;100.00;100229.19;4967978;28;20992;-71
2022/12/31 10:48:26;;;;;;;1.60;0.70;;;;;;;14.97;100.00;100218.88;4983252;28;20244;-71
2022/12/31 10:51:34;;;;;;;1.70;1.10;;;;;;;14.90;100.00;100215.69;4999979;28;20205;-71
2022/12/31 10:54:19;;;;;;;1.30;0.93;;;;;;;14.85;100.00;100206.34;4995864;28;20207;-71
2022/12/31 10:57:22;;;;;;;1.03;0.67;;;;;;;14.93;100.00;100227.78;4993129;28;20213;-71
2022/12/31 11:00:02;;;;;;;1.40;0.50;;;;;;;14.93;100.00;100236.53;4993128;28;20590;-71
2022/12/31 11:03:04;;;;;;;0.80;0.70;;;;;;;14.99;100.00;100229.28;4994087;28;20284;-71
2022/12/31 11:05:49;;;;;;;1.47;1.07;;;;;;;15.05;100.00;100231.59;4997623;28;20406;-71
2022/12/31 11:08:43;;;;;;;1.73;0.67;;;;;;;15.11;100.00;100240.00;4999536;28;20665;-71
2022/12/31 11:11:22;;;;;;;1.23;1.00;;;;;;;15.25;100.00;100246.31;4999604;28;20208;-71
2022/12/31 11:14:10;;;;;;;1.03;0.80;;;;;;;15.29;100.00;100242.63;4994554;28;20212;-72
2022/12/31 11:16:52;;;;;;;0.40;0.40;;;;;;;15.28;100.00;100239.13;4998457;28;20761;-71
2022/12/31 11:19:24;;;;;;;0.57;0.40;;;;;;;15.25;100.00;100236.66;4997388;28;20208;-72
2022/12/31 11:22:12;;;;;;;0.87;0.40;;;;;;;15.29;100.00;100261.00;4998699;28;20833;-71
2022/12/31 11:24:59;;;;;;;1.73;0.50;;;;;;;15.36;100.00;100262.38;4999833;28;20723;-71
2022/12/31 11:27:46;;;;;;;1.63;0.60;;;;;;;15.43;100.00;100260.28;5011739;28;20235;-71
2022/12/31 11:30:21;;;;;;;1.27;0.50;;;;;;;15.44;100.00;100264.59;4995461;28;20542;-71
2022/12/31 11:33:03;;;;;;;3.30;0.60;;;;;;;15.43;100.00;100258.50;5000943;28;20200;-71
2022/12/31 11:35:41;;;;;;;1.17;0.50;;;;;;;15.43;100.00;100263.75;5001383;28;20238;-71
2022/12/31 11:38:20;;;;;;;1.43;0.57;;;;;;;15.40;100.00;100258.66;4996530;22;20247;-72
2022/12/31 11:40:58;;;;;;;0.50;0.50;;;;;;;15.43;100.00;100263.75;4983319;28;20193;-72
2022/12/31 11:43:33;;;;;;;0.50;0.40;;;;;;;15.40;100.00;100269.16;4986206;28;20208;-70
2022/12/31 11:46:27;;;;;;;0.70;0.40;;;;;;;15.37;100.00;100257.97;4982925;28;20216;-71
2022/12/31 11:49:07;;;;;;;1.13;0.70;;;;;;;15.42;100.00;100263.84;4973299;28;20677;-70
2022/12/31 11:51:57;;;;;;;1.07;0.53;;;;;;;15.40;100.00;100261.28;4978746;28;20779;-72